Terminal Aerodrome Forecast
Issued by NWS

Home | Current Version | Previous Version | Text Only | Print | Product List | Glossary On
Versions: 1 2 3 4 5 6 7 8 9 10 11 12 13
000
FTUS42 TJSJ 281700
TAFJMZ
TAF
TJMZ 281740Z 2818/2918 15010KT P6SM SCT020 SCT040
     FM282200 11007KT P6SM SCT030
     FM291530 27010KT P6SM SCT025 BKN040=

USA.gov is the U.S. government's official web portal to all federal, state and local government web resources and services.